Time;durP1;ratioP1;P1;durP2;ratioP2;P2;SDS_P1;SDS_P2;PMS_P1;PMS_P2;Temp;Humidity;BMP_temperature;BMP_pressure;BME280_temperature;BME280_humidity;BME280_pressure;Samples;Min_cycle;Max_cycle;Signal;HPM_P1;HPM_P2
2020/12/05 00:00:14;;;;;;;13.23;7.70;;;;;;;;;;5048683;28;20193;-73
2020/12/05 00:02:40;;;;;;;11.47;8.33;;;;;;;;;;5039042;28;20251;-72
2020/12/05 00:05:05;;;;;;;11.87;8.80;;;;;;;;;;5046477;28;20208;-72
2020/12/05 00:07:31;;;;;;;11.17;8.30;;;;;;;;;;5036477;28;20680;-73
2020/12/05 00:09:56;;;;;;;13.33;8.30;;;;;;;;;;5046455;28;20599;-73
2020/12/05 00:12:21;;;;;;;11.13;8.47;;;;;;;;;;5039914;28;20466;-73
2020/12/05 00:14:47;;;;;;;11.17;8.27;;;;;;;;;;5045323;28;20220;-73
2020/12/05 00:17:12;;;;;;;11.87;8.47;;;;;;;;;;5038624;28;20216;-73
2020/12/05 00:19:37;;;;;;;10.33;8.33;;;;;;;;;;5043680;28;20192;-73
2020/12/05 00:22:03;;;;;;;12.67;8.43;;;;;;;;;;5036364;28;20268;-73
2020/12/05 00:24:28;;;;;;;11.27;8.10;;;;;;;;;;5043654;28;20699;-73
2020/12/05 00:26:54;;;;;;;12.67;8.33;;;;;;;;;;5047057;28;20555;-73
2020/12/05 00:29:20;;;;;;;14.20;9.70;;;;;;;;;;5035313;28;20250;-73
2020/12/05 00:31:52;;;;;;;12.60;9.60;;;;;;;;;;5045387;28;20821;-73
2020/12/05 00:34:18;;;;;;;13.30;10.10;;;;;;;;;;5035915;28;20707;-73
2020/12/05 00:36:44;;;;;;;16.13;10.03;;;;;;;;;;5046072;28;20200;-73
2020/12/05 00:39:09;;;;;;;14.63;10.70;;;;;;;;;;5033713;28;20225;-73
2020/12/05 00:41:34;;;;;;;15.43;10.60;;;;;;;;;;5061716;28;20185;-73
2020/12/05 00:44:00;;;;;;;14.50;10.17;;;;;;;;;;5038275;28;20271;-73
2020/12/05 00:46:25;;;;;;;13.20;10.13;;;;;;;;;;5049004;28;20195;-73
2020/12/05 00:48:51;;;;;;;14.90;10.33;;;;;;;;;;5037329;28;20659;-72
2020/12/05 00:51:16;;;;;;;15.73;10.40;;;;;;;;;;5048532;28;20181;-72
2020/12/05 00:53:41;;;;;;;17.20;10.93;;;;;;;;;;5038361;28;20649;-72
2020/12/05 00:56:07;;;;;;;14.17;10.10;;;;;;;;;;5050518;28;20193;-72
2020/12/05 00:58:34;;;;;;;14.53;10.37;;;;;;;;;;5048200;28;20668;-72
2020/12/05 01:01:04;;;;;;;14.97;10.70;;;;;;;;;;5039336;28;20193;-73
2020/12/05 01:03:30;;;;;;;16.83;11.73;;;;;;;;;;5049128;28;20196;-73
2020/12/05 01:05:55;;;;;;;13.13;10.77;;;;;;;;;;5036766;28;20193;-73
2020/12/05 01:08:21;;;;;;;14.40;10.67;;;;;;;;;;5046607;28;20539;-73
2020/12/05 01:10:46;;;;;;;15.53;10.90;;;;;;;;;;5037018;28;20247;-72
2020/12/05 01:13:11;;;;;;;15.87;11.63;;;;;;;;;;5045585;28;20193;-74
2020/12/05 01:15:37;;;;;;;18.60;11.40;;;;;;;;;;5038306;28;20200;-71
2020/12/05 01:18:02;;;;;;;18.37;11.60;;;;;;;;;;5050708;28;20200;-71
2020/12/05 01:20:27;;;;;;;14.60;10.70;;;;;;;;;;5045130;28;20600;-71
2020/12/05 01:22:54;;;;;;;16.50;11.57;;;;;;;;;;5050935;28;20216;-72
2020/12/05 01:25:20;;;;;;;15.63;11.30;;;;;;;;;;5044511;28;20247;-72
2020/12/05 01:27:45;;;;;;;16.33;11.67;;;;;;;;;;5049592;28;20256;-72
2020/12/05 01:30:10;;;;;;;14.43;11.00;;;;;;;;;;5054675;28;20188;-71
2020/12/05 01:32:36;;;;;;;17.10;11.23;;;;;;;;;;5040314;28;20229;-72
2020/12/05 01:35:02;;;;;;;16.60;11.47;;;;;;;;;;5053711;28;20547;-71
2020/12/05 01:37:27;;;;;;;15.23;11.60;;;;;;;;;;5041526;28;20211;-71
2020/12/05 01:39:52;;;;;;;17.80;11.57;;;;;;;;;;5052921;28;20196;-71
2020/12/05 01:42:18;;;;;;;16.57;11.97;;;;;;;;;;5040346;28;20193;-71
2020/12/05 01:44:43;;;;;;;14.87;11.50;;;;;;;;;;5052193;28;20198;-72
2020/12/05 01:47:10;;;;;;;17.30;12.50;;;;;;;;;;5041288;28;20280;-72
2020/12/05 01:49:35;;;;;;;17.10;12.37;;;;;;;;;;5053394;28;20208;-72
2020/12/05 01:52:01;;;;;;;15.93;11.83;;;;;;;;;;5040325;28;20267;-72
2020/12/05 01:54:26;;;;;;;16.60;11.40;;;;;;;;;;5054342;28;20189;-71
2020/12/05 01:57:10;;;;;;;17.37;12.07;;;;;;;;;;5041018;28;20197;-72
2020/12/05 01:59:35;;;;;;;17.70;12.83;;;;;;;;;;5049805;28;20269;-71
2020/12/05 02:02:03;;;;;;;16.50;11.57;;;;;;;;;;5041640;28;20280;-72
2020/12/05 02:04:29;;;;;;;19.47;13.27;;;;;;;;;;5050000;28;20247;-71
2020/12/05 02:07:11;;;;;;;19.23;12.67;;;;;;;;;;5051714;28;20317;-72
2020/12/05 02:09:45;;;;;;;20.30;12.83;;;;;;;;;;5047963;28;20587;-71
2020/12/05 02:12:43;;;;;;;19.77;12.53;;;;;;;;;;5050264;28;20189;-71
2020/12/05 02:15:16;;;;;;;17.60;12.17;;;;;;;;;;5050271;28;20197;-71
2020/12/05 02:17:50;;;;;;;16.23;12.37;;;;;;;;;;5050244;28;20592;-71
2020/12/05 02:20:15;;;;;;;18.27;12.70;;;;;;;;;;5049978;28;20228;-71
2020/12/05 02:22:43;;;;;;;17.20;13.10;;;;;;;;;;5049666;28;20186;-71
2020/12/05 02:25:12;;;;;;;16.73;11.80;;;;;;;;;;5040593;28;20193;-71
2020/12/05 02:27:37;;;;;;;16.40;12.33;;;;;;;;;;5052640;28;20272;-71
2020/12/05 02:30:04;;;;;;;16.07;11.93;;;;;;;;;;5040347;28;20643;-71
2020/12/05 02:32:30;;;;;;;21.50;12.60;;;;;;;;;;5050674;28;20227;-71
2020/12/05 02:34:55;;;;;;;18.90;13.40;;;;;;;;;;5041568;28;20209;-71
2020/12/05 02:37:24;;;;;;;18.90;12.10;;;;;;;;;;5051496;28;20213;-71
2020/12/05 02:39:50;;;;;;;17.73;13.10;;;;;;;;;;5041881;28;20196;-71
2020/12/05 02:42:15;;;;;;;16.97;13.33;;;;;;;;;;5052051;28;20537;-71
2020/12/05 02:44:48;;;;;;;20.27;13.57;;;;;;;;;;5041966;28;20185;-71
2020/12/05 02:47:14;;;;;;;20.93;14.37;;;;;;;;;;5052105;28;20205;-71
2020/12/05 02:49:39;;;;;;;18.73;13.37;;;;;;;;;;5040123;28;20596;-71
2020/12/05 02:52:04;;;;;;;20.80;14.83;;;;;;;;;;5051994;28;20547;-72
2020/12/05 02:54:31;;;;;;;17.37;12.60;;;;;;;;;;5044837;28;20276;-72
2020/12/05 02:56:58;;;;;;;18.97;12.90;;;;;;;;;;5047579;28;20181;-72
2020/12/05 02:59:23;;;;;;;19.10;12.90;;;;;;;;;;5048639;28;20185;-72
2020/12/05 03:01:48;;;;;;;18.27;13.07;;;;;;;;;;5041153;28;20550;-72
2020/12/05 03:04:13;;;;;;;18.17;12.83;;;;;;;;;;5048843;28;20192;-72
2020/12/05 03:06:39;;;;;;;16.53;12.77;;;;;;;;;;5040659;28;20201;-72
2020/12/05 03:09:04;;;;;;;20.20;13.87;;;;;;;;;;5048209;28;20231;-72
2020/12/05 03:11:29;;;;;;;17.77;12.80;;;;;;;;;;5042885;28;20194;-72
2020/12/05 03:13:54;;;;;;;17.03;12.33;;;;;;;;;;5047213;28;20184;-72
2020/12/05 03:16:20;;;;;;;19.17;13.13;;;;;;;;;;5041338;28;20185;-72
2020/12/05 03:18:45;;;;;;;16.83;12.70;;;;;;;;;;5047313;28;20707;-72
2020/12/05 03:21:11;;;;;;;19.03;12.87;;;;;;;;;;5057282;28;20185;-72
2020/12/05 03:23:36;;;;;;;19.53;13.53;;;;;;;;;;5046994;28;20207;-72
2020/12/05 03:26:01;;;;;;;19.27;12.80;;;;;;;;;;5049292;28;20184;-72
2020/12/05 03:28:27;;;;;;;16.00;12.90;;;;;;;;;;5037535;28;20193;-72
2020/12/05 03:30:52;;;;;;;19.20;13.67;;;;;;;;;;5051058;28;21330;-72
2020/12/05 03:33:20;;;;;;;17.83;13.60;;;;;;;;;;5038507;28;20256;-72
2020/12/05 03:35:45;;;;;;;18.53;13.47;;;;;;;;;;5050198;28;20203;-72
2020/12/05 03:38:10;;;;;;;17.47;13.33;;;;;;;;;;5040569;28;20716;-72
2020/12/05 03:40:37;;;;;;;18.23;13.23;;;;;;;;;;5051642;28;20259;-72
2020/12/05 03:43:03;;;;;;;17.70;14.03;;;;;;;;;;5038380;28;20211;-72
2020/12/05 03:45:29;;;;;;;17.33;13.20;;;;;;;;;;5049264;28;20700;-72
2020/12/05 03:47:55;;;;;;;18.23;13.83;;;;;;;;;;5038598;28;20178;-72
2020/12/05 03:50:20;;;;;;;19.43;15.00;;;;;;;;;;5052038;28;20192;-72
2020/12/05 03:52:45;;;;;;;21.90;14.43;;;;;;;;;;5038512;28;22339;-72
2020/12/05 03:55:11;;;;;;;26.17;14.40;;;;;;;;;;5051248;28;20200;-72
2020/12/05 03:57:36;;;;;;;23.23;14.50;;;;;;;;;;5046861;28;20208;-72
2020/12/05 04:00:03;;;;;;;21.33;15.07;;;;;;;;;;5039143;28;20204;-72
2020/12/05 04:02:28;;;;;;;19.60;14.93;;;;;;;;;;5051063;28;20672;-71
2020/12/05 04:04:53;;;;;;;20.90;14.23;;;;;;;;;;5041043;28;20749;-72
2020/12/05 04:07:19;;;;;;;20.03;14.43;;;;;;;;;;5049171;28;20205;-72
2020/12/05 04:09:44;;;;;;;19.87;14.47;;;;;;;;;;5041703;28;20201;-71
2020/12/05 04:12:09;;;;;;;19.13;13.73;;;;;;;;;;5045559;28;20185;-71
2020/12/05 04:14:35;;;;;;;18.67;13.67;;;;;;;;;;5042811;28;20181;-71
2020/12/05 04:17:00;;;;;;;21.00;14.07;;;;;;;;;;5048278;28;20185;-71
2020/12/05 04:19:25;;;;;;;22.73;14.17;;;;;;;;;;5042266;28;20189;-72
2020/12/05 04:21:51;;;;;;;18.00;13.93;;;;;;;;;;5047858;28;20271;-71
2020/12/05 04:24:17;;;;;;;18.80;14.57;;;;;;;;;;5038141;28;20637;-71
2020/12/05 04:26:42;;;;;;;21.13;14.87;;;;;;;;;;5048133;28;20311;-71
2020/12/05 04:29:07;;;;;;;15.80;12.13;;;;;;;;;;5047921;28;20173;-71
2020/12/05 04:31:33;;;;;;;22.20;15.37;;;;;;;;;;5040401;28;20185;-71
2020/12/05 04:33:58;;;;;;;19.50;14.03;;;;;;;;;;5049088;28;20221;-72
2020/12/05 04:36:23;;;;;;;19.17;14.57;;;;;;;;;;5037837;28;20196;-71
2020/12/05 04:38:48;;;;;;;19.67;15.67;;;;;;;;;;5048357;28;20209;-72
2020/12/05 04:41:14;;;;;;;19.50;14.67;;;;;;;;;;5036521;28;20216;-71
2020/12/05 04:43:40;;;;;;;20.27;15.87;;;;;;;;;;5050422;28;20193;-72
2020/12/05 04:46:06;;;;;;;20.47;15.13;;;;;;;;;;5036463;28;20255;-72
2020/12/05 04:48:33;;;;;;;21.17;15.33;;;;;;;;;;5048664;28;20186;-71
2020/12/05 04:51:03;;;;;;;22.07;15.70;;;;;;;;;;5043001;28;20185;-71
2020/12/05 04:53:30;;;;;;;21.77;15.97;;;;;;;;;;5054592;28;20189;-71
2020/12/05 04:56:00;;;;;;;19.60;15.70;;;;;;;;;;5042134;28;20243;-71
2020/12/05 04:58:26;;;;;;;21.07;15.77;;;;;;;;;;5051222;28;20205;-71
2020/12/05 05:00:54;;;;;;;21.57;14.20;;;;;;;;;;5045673;28;20178;-72
2020/12/05 05:03:23;;;;;;;22.70;16.10;;;;;;;;;;5050697;28;20208;-71
2020/12/05 05:05:51;;;;;;;24.90;16.70;;;;;;;;;;5049408;28;20216;-72
2020/12/05 05:08:17;;;;;;;21.80;14.87;;;;;;;;;;5044888;28;20205;-72
2020/12/05 05:10:43;;;;;;;21.70;14.93;;;;;;;;;;5051158;28;20657;-71
2020/12/05 05:13:14;;;;;;;22.17;15.13;;;;;;;;;;5044316;28;20189;-71
2020/12/05 05:15:41;;;;;;;23.33;16.83;;;;;;;;;;5050442;28;20208;-72
2020/12/05 05:18:07;;;;;;;21.53;15.50;;;;;;;;;;5040988;28;20337;-71
2020/12/05 05:20:44;;;;;;;21.50;16.03;;;;;;;;;;5048239;28;20192;-71
2020/12/05 05:23:20;;;;;;;21.93;16.37;;;;;;;;;;5042128;28;20676;-71
2020/12/05 05:25:50;;;;;;;23.60;16.17;;;;;;;;;;5052686;28;20185;-71
2020/12/05 05:28:41;;;;;;;21.63;15.40;;;;;;;;;;5042654;28;20212;-72
2020/12/05 05:31:19;;;;;;;19.90;15.13;;;;;;;;;;5047263;28;20552;-72
2020/12/05 05:33:50;;;;;;;25.87;15.30;;;;;;;;;;5042963;28;20225;-72
2020/12/05 05:36:25;;;;;;;21.37;15.57;;;;;;;;;;5052370;28;20264;-72
2020/12/05 05:39:05;;;;;;;25.00;14.07;;;;;;;;;;5040006;28;20262;-72
2020/12/05 05:41:31;;;;;;;24.20;16.17;;;;;;;;;;5050402;28;20523;-72
2020/12/05 05:44:15;;;;;;;22.43;15.80;;;;;;;;;;5040477;28;20276;-71
2020/12/05 05:46:43;;;;;;;22.07;15.83;;;;;;;;;;5050123;28;20189;-71
2020/12/05 05:49:11;;;;;;;22.57;16.33;;;;;;;;;;5040630;28;20178;-71
2020/12/05 05:51:56;;;;;;;20.47;15.80;;;;;;;;;;5053780;28;20669;-72
2020/12/05 05:54:25;;;;;;;19.67;15.43;;;;;;;;;;5041946;28;20197;-71
2020/12/05 05:57:08;;;;;;;22.33;14.77;;;;;;;;;;5049853;28;20240;-71
2020/12/05 05:59:36;;;;;;;20.37;15.17;;;;;;;;;;5041901;28;20205;-71
2020/12/05 06:02:04;;;;;;;23.80;16.77;;;;;;;;;;5046114;28;20220;-71
2020/12/05 06:04:32;;;;;;;20.73;16.03;;;;;;;;;;5041775;28;20722;-72
2020/12/05 06:06:59;;;;;;;19.23;14.57;;;;;;;;;;5047025;28;20228;-71
2020/12/05 06:09:28;;;;;;;22.80;16.47;;;;;;;;;;5040706;28;20212;-71
2020/12/05 06:11:55;;;;;;;29.77;19.93;;;;;;;;;;5045696;28;20189;-71
2020/12/05 06:14:21;;;;;;;28.93;18.80;;;;;;;;;;5049392;28;20804;-72
2020/12/05 06:16:57;;;;;;;24.57;18.77;;;;;;;;;;5039955;28;20193;-72
2020/12/05 06:19:25;;;;;;;25.57;18.70;;;;;;;;;;5048454;28;20201;-71
2020/12/05 06:21:53;;;;;;;27.50;19.20;;;;;;;;;;5041083;28;20190;-71
2020/12/05 06:24:40;;;;;;;26.77;19.27;;;;;;;;;;5047239;28;20309;-71
2020/12/05 06:27:08;;;;;;;26.13;19.63;;;;;;;;;;5039085;28;20243;-71
2020/12/05 06:29:36;;;;;;;25.90;17.30;;;;;;;;;;5048541;28;20181;-71
2020/12/05 06:32:02;;;;;;;26.90;18.07;;;;;;;;;;5041496;28;20280;-71
2020/12/05 06:34:41;;;;;;;22.87;17.23;;;;;;;;;;5050576;28;20328;-71
2020/12/05 06:37:12;;;;;;;23.13;16.77;;;;;;;;;;5053585;28;21992;-73
2020/12/05 06:39:38;;;;;;;22.57;17.57;;;;;;;;;;5049550;28;20279;-73
2020/12/05 06:42:16;;;;;;;23.60;17.30;;;;;;;;;;5038293;28;20272;-72
2020/12/05 06:44:42;;;;;;;22.47;17.13;;;;;;;;;;5050845;28;20243;-73
2020/12/05 06:47:10;;;;;;;21.27;15.53;;;;;;;;;;5039856;28;20190;-73
2020/12/05 06:49:35;;;;;;;21.93;15.90;;;;;;;;;;5039778;28;20185;-73
2020/12/05 06:52:22;;;;;;;24.00;17.73;;;;;;;;;;5041212;28;20213;-73
2020/12/05 06:54:51;;;;;;;28.87;19.07;;;;;;;;;;5048652;28;20264;-73
2020/12/05 06:57:16;;;;;;;28.93;20.87;;;;;;;;;;5040172;28;20651;-73
2020/12/05 06:59:42;;;;;;;24.60;18.73;;;;;;;;;;5050057;28;20193;-73
2020/12/05 07:02:26;;;;;;;28.97;21.03;;;;;;;;;;5038265;28;20557;-73
2020/12/05 07:04:52;;;;;;;34.80;24.87;;;;;;;;;;5050507;28;20189;-72
2020/12/05 07:07:30;;;;;;;32.97;23.77;;;;;;;;;;5040215;28;20205;-72
2020/12/05 07:09:55;;;;;;;30.87;22.53;;;;;;;;;;5043373;28;20315;-73
2020/12/05 07:12:20;;;;;;;33.70;23.83;;;;;;;;;;5041322;28;20264;-72
2020/12/05 07:14:46;;;;;;;32.37;22.63;;;;;;;;;;4339877;28;10000834;-73
2020/12/05 07:17:20;;;;;;;36.80;23.30;;;;;;;;;;5042706;28;20193;-73
2020/12/05 07:19:46;;;;;;;34.43;23.63;;;;;;;;;;5034063;28;20583;-73
2020/12/05 07:22:11;;;;;;;34.80;22.30;;;;;;;;;;5043617;28;20278;-74
2020/12/05 07:24:37;;;;;;;30.37;20.33;;;;;;;;;;5034258;28;20266;-73
2020/12/05 07:27:02;;;;;;;28.83;21.17;;;;;;;;;;5042293;28;20244;-73
2020/12/05 07:29:27;;;;;;;25.23;18.97;;;;;;;;;;5035167;28;20181;-73
2020/12/05 07:31:53;;;;;;;26.60;18.97;;;;;;;;;;5045241;28;20557;-73
2020/12/05 07:34:19;;;;;;;33.13;20.87;;;;;;;;;;5034126;28;20818;-73
2020/12/05 07:36:45;;;;;;;27.53;19.40;;;;;;;;;;5041543;28;20194;-73
2020/12/05 07:39:10;;;;;;;26.00;18.53;;;;;;;;;;5031836;28;20216;-72
2020/12/05 07:41:35;;;;;;;26.37;19.30;;;;;;;;;;5043291;28;20247;-72
2020/12/05 07:44:01;;;;;;;24.47;18.23;;;;;;;;;;5044155;28;20293;-73
2020/12/05 07:46:28;;;;;;;26.57;18.70;;;;;;;;;;5036653;28;20276;-74
2020/12/05 07:48:53;;;;;;;24.17;18.27;;;;;;;;;;5041673;28;20451;-72
2020/12/05 07:51:19;;;;;;;24.73;17.50;;;;;;;;;;5035067;28;20247;-73
2020/12/05 07:53:45;;;;;;;22.30;15.47;;;;;;;;;;5041373;28;20296;-73
2020/12/05 07:56:15;;;;;;;23.53;17.53;;;;;;;;;;5035321;28;20227;-73
2020/12/05 07:58:57;;;;;;;22.90;17.83;;;;;;;;;;5042485;28;20229;-73
2020/12/05 08:01:28;;;;;;;24.77;18.23;;;;;;;;;;5036616;28;20270;-73
2020/12/05 08:04:25;;;;;;;25.33;18.80;;;;;;;;;;5040065;28;20193;-73
2020/12/05 08:07:04;;;;;;;26.43;19.10;;;;;;;;;;5035650;28;20236;-73
2020/12/05 08:09:37;;;;;;;26.17;17.40;;;;;;;;;;5043107;28;20205;-73
2020/12/05 08:12:05;;;;;;;27.70;19.03;;;;;;;;;;5034423;28;20303;-73
2020/12/05 08:14:33;;;;;;;25.67;19.00;;;;;;;;;;5042132;28;20191;-73
2020/12/05 08:17:01;;;;;;;28.37;18.93;;;;;;;;;;5028705;28;20189;-73
2020/12/05 08:19:27;;;;;;;28.13;19.77;;;;;;;;;;5044832;28;20252;-73
2020/12/05 08:21:52;;;;;;;25.00;17.87;;;;;;;;;;5033252;28;20250;-73
2020/12/05 08:24:18;;;;;;;25.57;17.70;;;;;;;;;;5042769;28;20181;-73
2020/12/05 08:26:43;;;;;;;23.33;17.40;;;;;;;;;;5032211;28;20227;-73
2020/12/05 08:29:10;;;;;;;24.70;17.90;;;;;;;;;;5042047;28;20185;-73
2020/12/05 08:31:40;;;;;;;23.87;16.27;;;;;;;;;;5032245;28;20221;-73
2020/12/05 08:34:05;;;;;;;23.17;16.40;;;;;;;;;;5041029;28;20282;-73
2020/12/05 08:36:41;;;;;;;23.40;17.33;;;;;;;;;;5040931;28;20719;-73
2020/12/05 08:39:09;;;;;;;21.97;17.23;;;;;;;;;;5034433;28;20672;-73
2020/12/05 08:41:49;;;;;;;20.83;16.97;;;;;;;;;;5041700;28;20189;-73
2020/12/05 08:44:17;;;;;;;26.57;17.23;;;;;;;;;;5035165;28;20280;-73
2020/12/05 08:46:42;;;;;;;19.37;14.67;;;;;;;;;;5041888;28;20190;-73
2020/12/05 08:49:20;;;;;;;22.53;16.57;;;;;;;;;;5036062;28;20306;-72
2020/12/05 08:51:51;;;;;;;20.90;16.93;;;;;;;;;;5041748;28;20204;-72
2020/12/05 08:54:17;;;;;;;25.13;17.17;;;;;;;;;;5034318;28;20616;-73
2020/12/05 08:56:42;;;;;;;23.10;16.30;;;;;;;;;;5041930;28;20194;-73
2020/12/05 08:59:08;;;;;;;21.70;15.47;;;;;;;;;;5035057;28;20220;-73
2020/12/05 09:01:35;;;;;;;23.43;17.40;;;;;;;;;;5040771;28;20193;-73
2020/12/05 09:04:00;;;;;;;23.50;18.00;;;;;;;;;;5034805;28;20193;-73
2020/12/05 09:06:26;;;;;;;25.83;18.40;;;;;;;;;;5042121;28;20235;-73
2020/12/05 09:08:51;;;;;;;24.73;18.40;;;;;;;;;;5035633;28;20268;-73
2020/12/05 09:11:21;;;;;;;21.63;15.93;;;;;;;;;;5041940;28;20201;-73
2020/12/05 09:13:46;;;;;;;21.57;15.93;;;;;;;;;;5032013;28;20250;-73
2020/12/05 09:16:12;;;;;;;22.47;16.07;;;;;;;;;;5041964;28;20195;-73
2020/12/05 09:18:41;;;;;;;23.10;15.97;;;;;;;;;;5044409;28;20665;-73
2020/12/05 09:21:20;;;;;;;20.67;14.47;;;;;;;;;;5048523;28;20201;-73
2020/12/05 09:23:57;;;;;;;21.60;14.83;;;;;;;;;;5040170;28;20185;-73
2020/12/05 09:26:23;;;;;;;18.93;14.43;;;;;;;;;;5030117;28;20204;-73
2020/12/05 09:28:48;;;;;;;22.77;13.83;;;;;;;;;;5039064;28;20181;-73
2020/12/05 09:31:13;;;;;;;22.23;13.77;;;;;;;;;;5033671;28;20197;-73
2020/12/05 09:33:43;;;;;;;20.93;13.33;;;;;;;;;;5048595;28;20236;-73
2020/12/05 09:36:09;;;;;;;20.37;12.90;;;;;;;;;;5038792;28;20563;-73
2020/12/05 09:38:34;;;;;;;16.33;11.93;;;;;;;;;;5051251;28;20227;-73
2020/12/05 09:40:59;;;;;;;21.23;12.80;;;;;;;;;;5040124;28;20259;-73
2020/12/05 09:43:25;;;;;;;20.53;13.30;;;;;;;;;;5050263;28;20186;-73
2020/12/05 09:45:50;;;;;;;17.70;12.20;;;;;;;;;;5040464;28;20189;-73
2020/12/05 09:48:16;;;;;;;18.07;11.33;;;;;;;;;;5049956;28;20188;-73
2020/12/05 09:50:41;;;;;;;24.23;17.03;;;;;;;;;;5038861;28;20667;-73
2020/12/05 09:53:06;;;;;;;19.07;13.33;;;;;;;;;;5051462;28;20548;-73
2020/12/05 09:55:32;;;;;;;18.50;11.77;;;;;;;;;;5046710;28;20189;-73
2020/12/05 09:57:58;;;;;;;17.37;11.77;;;;;;;;;;5041032;28;20545;-73
2020/12/05 10:00:23;;;;;;;18.17;10.77;;;;;;;;;;5047989;28;20178;-73
2020/12/05 10:02:49;;;;;;;18.93;11.10;;;;;;;;;;5042021;28;20599;-73
2020/12/05 10:05:14;;;;;;;13.50;9.60;;;;;;;;;;5046524;28;20358;-73
2020/12/05 10:07:39;;;;;;;16.30;10.60;;;;;;;;;;5040706;28;20209;-73
2020/12/05 10:10:06;;;;;;;18.60;11.50;;;;;;;;;;5046939;28;20169;-73
2020/12/05 10:12:33;;;;;;;19.67;11.00;;;;;;;;;;5040796;28;20326;-73
2020/12/05 10:14:59;;;;;;;13.20;9.20;;;;;;;;;;5047603;28;20189;-73
2020/12/05 10:17:24;;;;;;;14.33;9.93;;;;;;;;;;5039149;28;20189;-73
2020/12/05 10:19:49;;;;;;;15.77;9.50;;;;;;;;;;5046308;28;20194;-73
2020/12/05 10:22:15;;;;;;;12.37;9.00;;;;;;;;;;5042764;28;20638;-73
2020/12/05 10:24:40;;;;;;;11.97;8.53;;;;;;;;;;5042819;28;20200;-73
2020/12/05 10:27:06;;;;;;;15.37;8.20;;;;;;;;;;5051422;28;20173;-73
2020/12/05 10:29:32;;;;;;;12.37;7.90;;;;;;;;;;5040152;28;20264;-73
2020/12/05 10:31:57;;;;;;;11.80;8.40;;;;;;;;;;5051725;28;20311;-73
2020/12/05 10:34:23;;;;;;;10.07;7.77;;;;;;;;;;5039687;28;20271;-73
2020/12/05 10:36:48;;;;;;;10.87;8.03;;;;;;;;;;5049836;28;20219;-73
2020/12/05 10:39:14;;;;;;;10.83;7.13;;;;;;;;;;5036706;28;20260;-73
2020/12/05 10:41:40;;;;;;;8.87;6.30;;;;;;;;;;5047889;28;20193;-73
2020/12/05 10:44:08;;;;;;;11.00;6.63;;;;;;;;;;5040057;28;20727;-73
2020/12/05 10:46:39;;;;;;;9.80;6.50;;;;;;;;;;5044695;28;20197;-73
2020/12/05 10:49:04;;;;;;;8.30;6.43;;;;;;;;;;5039441;28;20238;-73
2020/12/05 10:51:29;;;;;;;9.37;6.30;;;;;;;;;;5045494;28;20180;-73
2020/12/05 10:53:55;;;;;;;8.80;5.93;;;;;;;;;;5039335;28;20848;-73
2020/12/05 10:56:24;;;;;;;8.37;5.67;;;;;;;;;;5048983;28;20199;-73
2020/12/05 10:58:49;;;;;;;8.53;6.13;;;;;;;;;;5045299;28;20209;-72
2020/12/05 11:01:14;;;;;;;7.33;5.43;;;;;;;;;;5037471;28;20559;-73
2020/12/05 11:03:39;;;;;;;7.43;6.00;;;;;;;;;;5046882;28;20264;-73
2020/12/05 11:06:05;;;;;;;8.33;5.40;;;;;;;;;;5038860;28;20186;-72
2020/12/05 11:08:30;;;;;;;7.07;5.37;;;;;;;;;;5045328;28;20189;-72
2020/12/05 11:10:55;;;;;;;8.57;5.47;;;;;;;;;;5036025;28;20189;-72
2020/12/05 11:13:21;;;;;;;8.00;6.13;;;;;;;;;;5047082;28;20181;-72
2020/12/05 11:15:46;;;;;;;9.50;5.70;;;;;;;;;;5037693;28;20252;-72
2020/12/05 11:18:11;;;;;;;7.07;5.57;;;;;;;;;;5046442;28;20630;-72
2020/12/05 11:20:36;;;;;;;8.90;5.07;;;;;;;;;;5057117;28;20195;-73
2020/12/05 11:23:02;;;;;;;7.23;5.30;;;;;;;;;;5049655;28;20185;-72
2020/12/05 11:25:27;;;;;;;9.80;5.17;;;;;;;;;;5040614;28;20549;-73
2020/12/05 11:27:52;;;;;;;8.53;5.17;;;;;;;;;;5049390;28;20193;-73
2020/12/05 11:30:18;;;;;;;7.43;4.93;;;;;;;;;;5049428;28;20212;-73
2020/12/05 11:32:43;;;;;;;6.80;4.90;;;;;;;;;;5039517;28;20228;-73
2020/12/05 11:35:08;;;;;;;6.63;4.10;;;;;;;;;;5044802;28;20193;-73
2020/12/05 11:37:34;;;;;;;7.27;4.50;;;;;;;;;;5042114;28;20250;-73
2020/12/05 11:39:59;;;;;;;6.27;4.37;;;;;;;;;;5040931;28;20201;-73
2020/12/05 11:42:31;;;;;;;7.97;4.57;;;;;;;;;;5041052;28;20193;-73
2020/12/05 11:44:57;;;;;;;7.83;4.63;;;;;;;;;;5047903;28;20188;-73
2020/12/05 11:47:23;;;;;;;8.27;5.30;;;;;;;;;;5040981;28;20242;-73
2020/12/05 11:49:48;;;;;;;6.20;4.43;;;;;;;;;;5048159;28;20276;-72
2020/12/05 11:52:13;;;;;;;7.13;4.77;;;;;;;;;;5039710;28;20192;-73
2020/12/05 11:54:38;;;;;;;7.20;4.80;;;;;;;;;;5046977;28;20193;-73
2020/12/05 11:57:04;;;;;;;8.37;4.97;;;;;;;;;;5052767;28;20555;-73
2020/12/05 11:59:29;;;;;;;7.63;4.93;;;;;;;;;;5044348;28;20221;-73
2020/12/05 12:01:54;;;;;;;7.03;4.70;;;;;;;;;;5047367;28;20184;-73
2020/12/05 12:04:20;;;;;;;6.83;4.17;;;;;;;;;;4339871;28;10000831;-73
2020/12/05 12:06:45;;;;;;;5.80;4.00;;;;;;;;;;5039399;28;20205;-73
2020/12/05 12:09:10;;;;;;;7.23;4.00;;;;;;;;;;5033840;28;20624;-73
2020/12/05 12:11:35;;;;;;;5.97;4.10;;;;;;;;;;5038396;28;20251;-73
2020/12/05 12:14:01;;;;;;;6.63;3.70;;;;;;;;;;5031821;28;20196;-74
2020/12/05 12:16:26;;;;;;;5.97;3.70;;;;;;;;;;5043335;28;20185;-74
2020/12/05 12:18:53;;;;;;;5.80;3.93;;;;;;;;;;5029791;28;20205;-73
2020/12/05 12:21:26;;;;;;;5.37;3.70;;;;;;;;;;5041029;28;20223;-74
2020/12/05 12:23:51;;;;;;;8.20;4.37;;;;;;;;;;5034175;28;20659;-74
2020/12/05 12:26:17;;;;;;;6.30;3.73;;;;;;;;;;5039247;28;20184;-74
2020/12/05 12:28:43;;;;;;;5.37;3.67;;;;;;;;;;5033532;28;20244;-73
2020/12/05 12:31:08;;;;;;;6.33;3.93;;;;;;;;;;5042650;28;20873;-74
2020/12/05 12:33:33;;;;;;;4.27;3.67;;;;;;;;;;5041219;28;20286;-74
2020/12/05 12:35:59;;;;;;;5.27;3.80;;;;;;;;;;5046741;28;20189;-74
2020/12/05 12:38:25;;;;;;;5.83;3.80;;;;;;;;;;5042565;28;20236;-72
2020/12/05 12:40:50;;;;;;;7.93;3.80;;;;;;;;;;5032677;28;20224;-73
2020/12/05 12:43:15;;;;;;;6.00;3.30;;;;;;;;;;5039476;28;20303;-73
2020/12/05 12:45:43;;;;;;;8.30;4.00;;;;;;;;;;5035198;28;20212;-74
2020/12/05 12:50:34;;;;;;;4.33;3.40;;;;;;;;;;5032100;28;20243;-73
2020/12/05 12:53:00;;;;;;;8.00;4.17;;;;;;;;;;5040141;28;20262;-74
2020/12/05 12:55:25;;;;;;;8.23;3.67;;;;;;;;;;5034116;28;20193;-73
2020/12/05 12:57:52;;;;;;;6.40;3.83;;;;;;;;;;5042990;28;20252;-73
2020/12/05 13:00:17;;;;;;;5.13;3.57;;;;;;;;;;5033927;28;20185;-74
2020/12/05 13:02:42;;;;;;;8.40;4.40;;;;;;;;;;5044150;28;20195;-73
2020/12/05 13:05:08;;;;;;;5.00;3.70;;;;;;;;;;5043541;28;20189;-74
2020/12/05 13:07:33;;;;;;;6.20;3.73;;;;;;;;;;5033646;28;20583;-74
2020/12/05 13:10:00;;;;;;;6.87;3.90;;;;;;;;;;5044352;28;20174;-73
2020/12/05 13:12:26;;;;;;;6.47;3.80;;;;;;;;;;5032649;28;20267;-74
2020/12/05 13:14:51;;;;;;;4.80;3.33;;;;;;;;;;5045976;28;20177;-73
2020/12/05 13:17:16;;;;;;;7.47;3.40;;;;;;;;;;5036807;28;20193;-73
2020/12/05 13:19:41;;;;;;;8.67;3.80;;;;;;;;;;5049585;28;20270;-74
2020/12/05 13:22:07;;;;;;;4.87;3.70;;;;;;;;;;5037465;28;20620;-73
2020/12/05 13:24:32;;;;;;;6.67;3.43;;;;;;;;;;5043108;28;20182;-73
2020/12/05 13:26:57;;;;;;;6.97;3.80;;;;;;;;;;5037555;28;20354;-73
2020/12/05 13:29:23;;;;;;;4.83;3.53;;;;;;;;;;5047878;28;20178;-73
2020/12/05 13:31:48;;;;;;;6.13;4.17;;;;;;;;;;5040597;28;20591;-73
2020/12/05 13:34:13;;;;;;;5.33;3.60;;;;;;;;;;5046294;28;20701;-74
2020/12/05 13:36:42;;;;;;;5.97;4.07;;;;;;;;;;5046753;28;20188;-73
2020/12/05 13:39:08;;;;;;;5.50;3.53;;;;;;;;;;5051576;28;20216;-74
2020/12/05 13:41:33;;;;;;;7.47;4.20;;;;;;;;;;5048014;28;20193;-73
2020/12/05 13:43:59;;;;;;;4.63;2.80;;;;;;;;;;5036291;28;20255;-73
2020/12/05 13:46:28;;;;;;;7.83;3.67;;;;;;;;;;5050205;28;20697;-73
2020/12/05 13:48:53;;;;;;;3.80;2.90;;;;;;;;;;5038078;28;20209;-73
2020/12/05 13:51:19;;;;;;;4.00;3.37;;;;;;;;;;5049953;28;20664;-73
2020/12/05 13:53:45;;;;;;;6.57;3.37;;;;;;;;;;5039097;28;20192;-73
2020/12/05 13:56:14;;;;;;;4.10;3.40;;;;;;;;;;5047989;28;20189;-73
2020/12/05 13:58:39;;;;;;;4.37;2.83;;;;;;;;;;5040044;28;20223;-73
2020/12/05 14:01:04;;;;;;;6.73;3.70;;;;;;;;;;5046524;28;20281;-74
2020/12/05 14:03:31;;;;;;;6.87;4.40;;;;;;;;;;5034728;28;20554;-73
2020/12/05 14:05:57;;;;;;;8.87;5.10;;;;;;;;;;5046183;28;20656;-73
2020/12/05 14:08:22;;;;;;;8.07;4.37;;;;;;;;;;5047578;28;20280;-73
2020/12/05 14:10:47;;;;;;;5.17;3.93;;;;;;;;;;5037475;28;20205;-74
2020/12/05 14:13:13;;;;;;;5.83;3.83;;;;;;;;;;5049754;28;20181;-73
2020/12/05 14:15:38;;;;;;;5.90;4.70;;;;;;;;;;5040062;28;20268;-74
2020/12/05 14:18:03;;;;;;;10.27;5.03;;;;;;;;;;5047608;28;20240;-73
2020/12/05 14:20:28;;;;;;;6.77;4.50;;;;;;;;;;5036100;28;20753;-73
2020/12/05 14:22:54;;;;;;;6.53;4.10;;;;;;;;;;5049133;28;20231;-74
2020/12/05 14:25:19;;;;;;;5.30;4.10;;;;;;;;;;5038058;28;20201;-74